createdAt,value
2022-10-19T00:01:07.726Z,69.05
2022-10-19T00:03:35.862Z,68.32
2022-10-19T00:06:21.900Z,69.27
2022-10-19T00:08:48.363Z,69.52
2022-10-19T00:11:15.047Z,69.25
2022-10-19T00:13:41.502Z,69.24
2022-10-19T00:16:11.747Z,69.12
2022-10-19T00:18:38.730Z,68.73
2022-10-19T00:21:07.547Z,69.27
2022-10-19T00:23:34.319Z,68.96
2022-10-19T00:26:01.047Z,68.44
2022-10-19T00:28:28.709Z,68.25
2022-10-19T00:30:55.311Z,68.66
2022-10-19T00:33:21.797Z,68.79
2022-10-19T00:35:50.570Z,68.86
2022-10-19T00:38:18.392Z,68.17
2022-10-19T00:40:46.022Z,67.84
2022-10-19T00:43:25.192Z,67.94
2022-10-19T00:45:51.831Z,67.75
2022-10-19T00:48:27.221Z,67.26
2022-10-19T00:50:58.248Z,67.21
2022-10-19T00:53:28.651Z,67.09
2022-10-19T00:55:57.696Z,67.00
2022-10-19T00:58:24.421Z,66.79
2022-10-19T01:00:51.087Z,66.80
2022-10-19T01:03:18.255Z,66.87
2022-10-19T01:05:44.750Z,66.67
2022-10-19T01:08:12.036Z,66.14
2022-10-19T01:11:14.721Z,65.77
2022-10-19T01:14:01.114Z,66.04
2022-10-19T01:16:52.956Z,65.76
2022-10-19T01:19:34.557Z,65.90
2022-10-19T01:22:31.270Z,66.21
2022-10-19T01:25:19.381Z,66.58
2022-10-19T01:28:07.539Z,65.84
2022-10-19T01:30:52.716Z,66.31
2022-10-19T01:33:37.556Z,65.89
2022-10-19T01:36:37.044Z,65.34
2022-10-19T01:39:23.052Z,66.13
2022-10-19T01:42:01.900Z,65.64
2022-10-19T01:44:31.316Z,65.61
2022-10-19T01:47:08.434Z,66.19
2022-10-19T01:49:41.829Z,66.13
2022-10-19T01:52:13.910Z,65.86
2022-10-19T01:54:47.248Z,65.88
2022-10-19T01:57:23.534Z,65.39
2022-10-19T01:59:53.216Z,64.95
2022-10-19T02:02:21.471Z,65.14
2022-10-19T02:04:50.902Z,65.50
2022-10-19T02:07:21.627Z,64.98
2022-10-19T02:09:48.485Z,65.33
2022-10-19T02:12:16.849Z,65.61
2022-10-19T02:14:47.545Z,65.47
2022-10-19T02:17:23.927Z,65.49
2022-10-19T02:19:51.465Z,65.16
2022-10-19T02:22:18.047Z,65.93
2022-10-19T02:24:44.571Z,65.64
2022-10-19T02:27:11.512Z,65.81
2022-10-19T02:29:39.522Z,65.60
2022-10-19T02:32:07.099Z,65.78
2022-10-19T02:34:35.389Z,65.92
2022-10-19T02:37:02.106Z,65.87
2022-10-19T02:39:29.334Z,65.83
2022-10-19T02:42:11.813Z,65.51
2022-10-19T02:44:50.644Z,65.56
2022-10-19T02:47:19.630Z,65.68
2022-10-19T02:49:49.055Z,65.19
2022-10-19T02:52:15.501Z,65.13
2022-10-19T02:54:44.493Z,64.91
2022-10-19T02:57:24.266Z,65.25
2022-10-19T02:59:52.147Z,64.92
2022-10-19T03:02:20.435Z,64.59
2022-10-19T03:07:20.971Z,65.10
2022-10-19T03:09:47.728Z,65.42
2022-10-19T03:12:14.913Z,65.04
2022-10-19T03:14:41.629Z,65.17
2022-10-19T03:17:08.267Z,64.98
2022-10-19T03:19:36.125Z,64.93
2022-10-19T03:22:02.957Z,65.26
2022-10-19T03:24:30.579Z,65.13
2022-10-19T03:26:57.502Z,65.77
2022-10-19T03:29:24.008Z,65.41
2022-10-19T03:31:50.523Z,65.47
2022-10-19T03:34:17.208Z,65.36
2022-10-19T03:36:43.672Z,65.70
2022-10-19T03:39:13.161Z,66.14
2022-10-19T03:41:40.082Z,65.29
2022-10-19T03:44:08.960Z,65.72
2022-10-19T03:46:36.587Z,65.39
2022-10-19T03:49:04.343Z,65.75
2022-10-19T03:51:32.464Z,65.32
2022-10-19T03:54:03.321Z,65.00
2022-10-19T03:56:31.687Z,64.79
2022-10-19T03:59:00.835Z,64.67
2022-10-19T04:01:36.434Z,65.25
2022-10-19T04:04:09.860Z,65.76
2022-10-19T04:06:39.621Z,65.80
2022-10-19T04:09:08.248Z,66.28
2022-10-19T04:11:35.871Z,65.82
2022-10-19T04:14:31.921Z,65.20
2022-10-19T04:17:00.845Z,65.01
2022-10-19T04:19:27.326Z,65.06
2022-10-19T04:21:53.980Z,64.85
2022-10-19T04:24:20.481Z,65.48
2022-10-19T04:26:50.613Z,65.58
2022-10-19T04:29:18.893Z,65.76
2022-10-19T04:31:45.985Z,65.87
2022-10-19T04:34:12.493Z,65.92
2022-10-19T04:36:39.080Z,65.57
2022-10-19T04:39:06.703Z,65.51
2022-10-19T04:41:33.541Z,65.51
2022-10-19T04:44:02.571Z,65.94
2022-10-19T04:46:30.419Z,65.01
2022-10-19T04:48:57.413Z,65.02
2022-10-19T04:51:24.375Z,65.04
2022-10-19T04:53:51.671Z,65.09
2022-10-19T04:56:23.321Z,64.65
2022-10-19T04:58:49.937Z,64.85
2022-10-19T05:01:19.809Z,64.58
2022-10-19T05:03:47.604Z,65.27
2022-10-19T05:06:15.670Z,64.74
2022-10-19T05:08:42.168Z,64.79
2022-10-19T05:11:14.374Z,64.83
2022-10-19T05:13:42.044Z,64.92
2022-10-19T05:16:13.225Z,65.65
2022-10-19T05:18:40.409Z,64.74
2022-10-19T05:21:10.346Z,65.32
2022-10-19T05:23:37.791Z,65.53
2022-10-19T05:26:10.291Z,65.08
2022-10-19T05:28:37.575Z,65.03
2022-10-19T05:31:15.292Z,64.96
2022-10-19T05:33:42.889Z,64.96
2022-10-19T05:36:16.735Z,65.27
2022-10-19T05:38:44.687Z,65.00
2022-10-19T05:41:11.316Z,65.55
2022-10-19T05:43:37.921Z,65.04
2022-10-19T05:46:10.653Z,65.44
2022-10-19T05:48:37.314Z,65.92
2022-10-19T05:51:05.780Z,65.08
2022-10-19T05:53:33.953Z,65.44
2022-10-19T05:56:00.828Z,65.56
2022-10-19T05:58:30.005Z,65.29
2022-10-19T06:01:00.780Z,65.42
2022-10-19T06:03:28.483Z,65.33
2022-10-19T06:05:58.868Z,65.44
2022-10-19T06:08:25.672Z,65.85
2022-10-19T06:10:52.324Z,65.67
2022-10-19T06:13:20.165Z,65.99
2022-10-19T06:15:51.217Z,65.85
2022-10-19T06:18:17.849Z,65.95
2022-10-19T06:20:45.611Z,66.36
2022-10-19T06:23:12.221Z,65.81
2022-10-19T06:25:38.770Z,66.33
2022-10-19T06:28:05.396Z,67.18
2022-10-19T06:30:31.980Z,66.78
2022-10-19T06:32:58.965Z,66.27
2022-10-19T06:35:25.703Z,66.18
2022-10-19T06:37:52.346Z,66.24
2022-10-19T06:40:18.996Z,66.71
2022-10-19T06:42:45.715Z,67.11
2022-10-19T06:45:12.253Z,67.62
2022-10-19T06:47:39.042Z,66.72
2022-10-19T06:50:07.299Z,67.00
2022-10-19T06:52:35.320Z,66.31
2022-10-19T06:55:02.707Z,65.83
2022-10-19T06:57:29.362Z,66.38
2022-10-19T06:59:55.832Z,65.68
2022-10-19T07:02:22.909Z,65.94
2022-10-19T07:04:49.756Z,66.00
2022-10-19T07:07:16.540Z,65.55
2022-10-19T07:09:47.749Z,65.90
2022-10-19T07:12:14.219Z,66.07
2022-10-19T07:14:40.739Z,65.65
2022-10-19T07:17:08.042Z,66.31
2022-10-19T07:19:34.655Z,67.18
2022-10-19T07:22:01.273Z,66.20
2022-10-19T07:24:27.886Z,66.37
2022-10-19T07:26:54.411Z,65.75
2022-10-19T07:29:21.400Z,65.96
2022-10-19T07:31:48.145Z,66.14
2022-10-19T07:34:15.102Z,66.22
2022-10-19T07:36:45.223Z,66.58
2022-10-19T07:39:12.020Z,66.61
2022-10-19T07:41:39.103Z,65.62
2022-10-19T07:44:05.828Z,65.29
2022-10-19T07:46:32.742Z,67.98
2022-10-19T07:49:00.769Z,65.69
2022-10-19T07:54:03.174Z,66.63
2022-10-19T07:56:30.143Z,66.22
2022-10-19T07:58:59.267Z,65.52
2022-10-19T08:01:28.960Z,66.00
2022-10-19T08:04:43.171Z,66.55
2022-10-19T08:06:44.169Z,66.08
2022-10-19T08:09:15.583Z,65.77
2022-10-19T08:11:49.409Z,66.48
2022-10-19T08:14:15.871Z,65.46
2022-10-19T08:16:42.329Z,65.76
2022-10-19T08:19:12.612Z,63.90
2022-10-19T08:21:42.069Z,63.44
2022-10-19T08:24:09.879Z,62.43
2022-10-19T08:26:38.802Z,62.11
2022-10-19T08:29:14.500Z,61.67
2022-10-19T08:31:42.905Z,61.80
2022-10-19T08:34:09.980Z,61.96
2022-10-19T08:36:36.508Z,62.88
2022-10-19T08:39:06.001Z,63.69
2022-10-19T08:42:01.925Z,63.21
2022-10-19T08:44:34.396Z,63.95
2022-10-19T08:47:25.712Z,64.89
2022-10-19T08:49:52.414Z,64.21
2022-10-19T08:52:34.254Z,64.17
2022-10-19T08:55:15.127Z,64.17
2022-10-19T08:58:23.903Z,63.87
2022-10-19T09:01:10.992Z,63.51
2022-10-19T09:04:04.626Z,63.25
2022-10-19T09:06:51.386Z,64.13
2022-10-19T09:09:20.883Z,65.75
2022-10-19T09:11:51.090Z,65.44
2022-10-19T09:14:48.823Z,64.95
2022-10-19T09:17:16.267Z,65.91
2022-10-19T09:19:42.982Z,65.05
2022-10-19T09:22:26.274Z,65.55
2022-10-19T09:25:00.756Z,65.26
2022-10-19T09:27:38.645Z,65.29
2022-10-19T09:30:20.812Z,64.91
2022-10-19T09:32:51.681Z,64.34
2022-10-19T09:35:27.968Z,63.63
2022-10-19T09:37:56.333Z,64.24
2022-10-19T09:40:29.155Z,64.56
2022-10-19T09:42:56.305Z,63.87
2022-10-19T09:45:40.469Z,63.14
2022-10-19T09:48:20.961Z,62.46
2022-10-19T09:51:01.365Z,62.61
2022-10-19T09:53:29.832Z,64.10
2022-10-19T09:56:04.974Z,62.69
2022-10-19T09:58:33.267Z,62.04
2022-10-19T10:01:02.417Z,61.66
2022-10-19T10:03:35.652Z,61.02
2022-10-19T10:06:13.398Z,61.14
2022-10-19T10:08:53.913Z,60.20
2022-10-19T10:11:48.314Z,60.71
2022-10-19T10:14:28.712Z,60.21
2022-10-19T10:17:17.130Z,60.52
2022-10-19T10:20:05.907Z,61.24
2022-10-19T10:22:35.886Z,61.30
2022-10-19T10:25:13.549Z,62.09
2022-10-19T10:27:40.116Z,62.66
2022-10-19T10:30:16.841Z,62.83
2022-10-19T10:32:49.916Z,62.50
2022-10-19T10:35:18.796Z,61.33
2022-10-19T10:37:47.082Z,61.54
2022-10-19T10:40:24.147Z,61.77
2022-10-19T10:42:54.876Z,61.63
2022-10-19T10:45:46.731Z,60.65
2022-10-19T10:48:26.981Z,60.63
2022-10-19T10:50:53.852Z,60.59
2022-10-19T10:53:32.505Z,61.14
2022-10-19T10:56:00.639Z,61.84
2022-10-19T10:58:48.097Z,61.72
2022-10-19T11:01:30.020Z,61.76
2022-10-19T11:04:22.311Z,62.91
2022-10-19T11:06:59.044Z,61.26
2022-10-19T11:09:36.347Z,62.34
2022-10-19T11:12:06.553Z,62.60
2022-10-19T11:14:38.626Z,61.89
2022-10-19T11:17:31.852Z,62.51
2022-10-19T11:19:58.650Z,63.85
2022-10-19T11:22:40.061Z,62.96
2022-10-19T11:25:21.661Z,63.10
2022-10-19T11:28:00.334Z,61.63
2022-10-19T11:30:30.493Z,61.78
2022-10-19T11:33:12.017Z,60.25
2022-10-19T11:35:53.610Z,58.17
2022-10-19T11:38:43.504Z,57.79
2022-10-19T11:41:22.046Z,56.52
2022-10-19T11:44:13.444Z,56.68
2022-10-19T11:46:55.240Z,56.40
2022-10-19T11:49:39.831Z,56.23
2022-10-19T11:52:23.837Z,55.44
2022-10-19T11:55:18.005Z,55.11
2022-10-19T11:57:57.379Z,54.39
2022-10-19T12:00:39.924Z,54.20
2022-10-19T12:03:42.535Z,53.30
2022-10-19T12:06:18.239Z,52.80
2022-10-19T12:09:06.553Z,52.91
2022-10-19T12:11:51.477Z,51.71
2022-10-19T12:14:25.608Z,52.04
2022-10-19T12:16:56.905Z,51.75
2022-10-19T12:19:33.250Z,51.05
2022-10-19T12:22:03.622Z,50.49
2022-10-19T12:24:33.848Z,50.29
2022-10-19T12:27:01.853Z,49.69
2022-10-19T12:29:34.223Z,49.34
2022-10-19T12:32:04.619Z,49.79
2022-10-19T12:34:52.582Z,49.00
2022-10-19T12:37:33.108Z,48.26
2022-10-19T12:40:02.614Z,47.96
2022-10-19T12:42:55.331Z,48.14
2022-10-19T12:45:31.939Z,46.97
2022-10-19T12:48:10.438Z,46.70
2022-10-19T12:50:49.096Z,46.53
2022-10-19T12:56:01.978Z,45.91
2022-10-19T12:58:38.065Z,46.48
2022-10-19T13:01:07.237Z,46.41
2022-10-19T13:03:40.119Z,46.71
2022-10-19T13:06:32.644Z,47.04
2022-10-19T13:09:06.713Z,47.70
2022-10-19T13:14:13.662Z,48.42
2022-10-19T13:16:57.672Z,48.67
2022-10-19T13:19:24.753Z,48.40
2022-10-19T13:22:22.740Z,48.42
2022-10-19T13:25:11.180Z,48.31
2022-10-19T13:27:39.438Z,48.93
2022-10-19T13:30:35.234Z,49.16
2022-10-19T13:33:23.586Z,49.03
2022-10-19T13:35:59.173Z,49.05
2022-10-19T13:38:46.996Z,49.09
2022-10-19T13:41:21.427Z,49.42
2022-10-19T13:44:09.308Z,49.16
2022-10-19T13:46:56.906Z,49.97
2022-10-19T13:49:55.016Z,50.48
2022-10-19T13:52:36.808Z,50.91
2022-10-19T13:55:20.741Z,49.86
2022-10-19T13:58:18.226Z,50.68
2022-10-19T14:00:53.748Z,50.69
2022-10-19T14:03:36.141Z,50.01
2022-10-19T14:06:35.752Z,49.13
2022-10-19T14:09:28.102Z,47.75
2022-10-19T14:12:21.565Z,46.90
2022-10-19T14:14:48.017Z,45.58
2022-10-19T14:17:19.737Z,44.45
2022-10-19T14:19:50.257Z,43.97
2022-10-19T14:22:23.441Z,43.85
2022-10-19T14:24:50.311Z,42.66
2022-10-19T14:27:23.100Z,42.27
2022-10-19T14:29:52.332Z,42.19
2022-10-19T14:32:25.644Z,42.50
2022-10-19T14:34:53.599Z,42.68
2022-10-19T14:37:26.406Z,41.70
2022-10-19T14:40:04.748Z,40.96
2022-10-19T14:42:41.069Z,40.66
2022-10-19T14:45:15.181Z,40.96
2022-10-19T14:48:03.199Z,40.87
2022-10-19T14:50:51.167Z,42.06
2022-10-19T14:53:36.131Z,43.76
2022-10-19T14:56:16.119Z,44.74
2022-10-19T14:59:07.460Z,46.47
2022-10-19T15:01:35.774Z,47.20
2022-10-19T15:04:03.038Z,47.18
2022-10-19T15:06:33.531Z,47.84
2022-10-19T15:09:04.960Z,48.59
2022-10-19T15:11:38.434Z,48.71
2022-10-19T15:14:14.026Z,49.32
2022-10-19T15:16:49.059Z,49.94
2022-10-19T15:19:17.726Z,51.00
2022-10-19T15:21:44.831Z,51.60
2022-10-19T15:24:27.944Z,52.46
2022-10-19T15:27:08.406Z,52.83
2022-10-19T15:29:35.757Z,52.76
2022-10-19T15:32:21.450Z,52.99
2022-10-19T15:34:48.071Z,53.12
2022-10-19T15:37:20.627Z,52.78
2022-10-19T15:39:48.199Z,53.01
2022-10-19T15:42:23.604Z,53.06
2022-10-19T15:44:50.068Z,53.81
2022-10-19T15:47:16.496Z,54.29
2022-10-19T15:49:42.912Z,55.42
2022-10-19T15:52:21.714Z,55.29
2022-10-19T15:54:53.507Z,55.58
2022-10-19T15:57:40.445Z,55.85
2022-10-19T16:00:14.012Z,56.24
2022-10-19T16:02:40.679Z,56.51
2022-10-19T16:05:07.965Z,56.97
2022-10-19T16:07:38.442Z,57.40
2022-10-19T16:10:06.179Z,57.40
2022-10-19T16:12:32.708Z,57.51
2022-10-19T16:14:59.200Z,57.34
2022-10-19T16:17:25.712Z,57.70
2022-10-19T16:19:52.212Z,58.11
2022-10-19T16:22:18.688Z,58.60
2022-10-19T16:24:45.157Z,59.15
2022-10-19T16:27:11.615Z,59.58
2022-10-19T16:29:38.112Z,60.15
2022-10-19T16:32:04.657Z,60.89
2022-10-19T16:34:31.235Z,61.57
2022-10-19T16:37:00.454Z,62.50
2022-10-19T16:39:29.245Z,63.38
2022-10-19T16:50:35.651Z,65.88
2022-10-19T16:53:10.051Z,66.64
2022-10-19T16:55:37.623Z,67.03
2022-10-19T16:58:04.140Z,67.08
2022-10-19T17:00:30.760Z,67.41
2022-10-19T17:02:57.465Z,67.93
2022-10-19T17:05:23.966Z,67.77
2022-10-19T17:07:50.449Z,68.32
2022-10-19T17:10:16.959Z,69.12
2022-10-19T17:12:43.475Z,69.60
2022-10-19T17:17:56.492Z,70.23
2022-10-19T17:20:22.938Z,70.33
2022-10-19T17:22:51.928Z,71.12
2022-10-19T17:25:18.454Z,71.66
2022-10-19T17:27:44.925Z,71.80
2022-10-19T17:30:11.424Z,71.58
2022-10-19T17:32:38.022Z,71.85
2022-10-19T17:35:04.982Z,72.66
2022-10-19T17:37:31.478Z,72.80
2022-10-19T17:39:57.973Z,72.67
2022-10-19T17:42:24.466Z,72.89
2022-10-19T17:44:51.105Z,73.00
2022-10-19T17:47:17.596Z,73.28
2022-10-19T17:49:44.074Z,73.25
2022-10-19T17:52:10.542Z,73.31
2022-10-19T17:54:48.534Z,73.78
2022-10-19T17:57:24.154Z,73.98
2022-10-19T17:59:53.310Z,73.92
2022-10-19T18:02:20.147Z,74.04
2022-10-19T18:04:46.804Z,74.74
2022-10-19T18:07:13.276Z,74.77
2022-10-19T18:09:39.751Z,74.55
2022-10-19T18:12:07.545Z,74.50
2022-10-19T18:14:34.301Z,74.74
2022-10-19T18:17:00.743Z,73.82
2022-10-19T18:19:27.334Z,73.96
2022-10-19T18:21:53.849Z,74.55
2022-10-19T18:24:20.466Z,74.05
2022-10-19T18:26:50.026Z,74.16
2022-10-19T18:29:20.203Z,75.23
2022-10-19T18:31:47.198Z,74.90
2022-10-19T18:34:15.341Z,75.50
2022-10-19T18:36:42.593Z,76.04
2022-10-19T18:39:11.628Z,75.13
2022-10-19T18:41:38.317Z,74.98
2022-10-19T18:44:06.162Z,74.74
2022-10-19T18:46:35.767Z,75.25
2022-10-19T18:49:05.259Z,74.95
2022-10-19T18:51:31.805Z,74.77
2022-10-19T18:53:58.803Z,74.44
2022-10-19T18:56:26.746Z,75.61
2022-10-19T18:58:53.290Z,76.70
2022-10-19T19:01:25.902Z,77.22
2022-10-19T19:03:55.030Z,76.99
2022-10-19T19:06:27.435Z,76.60
2022-10-19T19:08:55.605Z,77.00
2022-10-19T19:11:33.054Z,76.48
2022-10-19T19:14:06.852Z,76.71
2022-10-19T19:16:37.423Z,76.56
2022-10-19T19:19:05.252Z,75.91
2022-10-19T19:21:33.203Z,76.38
2022-10-19T19:24:02.096Z,76.48
2022-10-19T19:26:31.900Z,76.51
2022-10-19T19:28:58.928Z,75.99
2022-10-19T19:31:26.666Z,76.25
2022-10-19T19:33:53.219Z,75.66
2022-10-19T19:36:20.503Z,75.89
2022-10-19T19:38:47.602Z,75.72
2022-10-19T19:41:15.926Z,75.49
2022-10-19T19:43:43.550Z,74.84
2022-10-19T19:46:13.790Z,75.22
2022-10-19T19:48:42.367Z,74.85
2022-10-19T19:51:11.672Z,74.83
2022-10-19T19:53:38.661Z,75.05
2022-10-19T19:56:11.016Z,75.00
2022-10-19T19:58:37.662Z,74.80
2022-10-19T20:01:12.166Z,75.41
2022-10-19T20:03:42.848Z,75.72
2022-10-19T20:06:10.154Z,74.94
2022-10-19T20:08:37.095Z,75.18
2022-10-19T20:11:13.363Z,74.43
2022-10-19T20:13:40.527Z,73.81
2022-10-19T20:16:12.538Z,74.02
2022-10-19T20:18:40.447Z,74.70
2022-10-19T20:21:06.949Z,75.32
2022-10-19T20:23:33.410Z,75.65
2022-10-19T20:25:59.894Z,75.53
2022-10-19T20:28:27.341Z,75.68
2022-10-19T20:31:12.983Z,75.28
2022-10-19T20:33:42.341Z,74.86
2022-10-19T20:36:13.093Z,76.77
2022-10-19T20:38:44.630Z,77.56
2022-10-19T20:41:11.205Z,77.83
2022-10-19T20:43:37.984Z,79.01
2022-10-19T20:46:14.270Z,79.76
2022-10-19T20:48:40.843Z,78.07
2022-10-19T20:51:27.589Z,77.26
2022-10-19T20:53:59.265Z,76.57
2022-10-19T20:56:31.741Z,76.35
2022-10-19T20:59:04.760Z,75.32
2022-10-19T21:01:33.457Z,74.57
2022-10-19T21:04:02.152Z,73.83
2022-10-19T21:06:31.442Z,74.24
2022-10-19T21:08:58.851Z,73.95
2022-10-19T21:11:28.307Z,74.13
2022-10-19T21:13:57.164Z,73.78
2022-10-19T21:16:26.057Z,73.00
2022-10-19T21:18:52.559Z,73.32
2022-10-19T21:21:20.439Z,74.27
2022-10-19T21:23:50.450Z,74.20
2022-10-19T21:26:17.356Z,74.52
2022-10-19T21:28:49.678Z,76.10
2022-10-19T21:31:17.477Z,75.98
2022-10-19T21:33:44.426Z,76.30
2022-10-19T21:36:13.248Z,77.45
2022-10-19T21:38:40.608Z,77.66
2022-10-19T21:41:11.490Z,77.11
2022-10-19T21:43:38.025Z,75.85
2022-10-19T21:46:08.404Z,75.66
2022-10-19T21:48:34.922Z,76.25
2022-10-19T21:51:28.765Z,75.55
2022-10-19T21:53:55.352Z,75.91
2022-10-19T21:56:21.921Z,76.35
2022-10-19T21:58:50.676Z,77.88
2022-10-19T22:01:19.060Z,78.17
2022-10-19T22:03:45.612Z,78.68
2022-10-19T22:06:13.220Z,77.65
2022-10-19T22:08:44.869Z,78.22
2022-10-19T22:11:13.580Z,76.96
2022-10-19T22:13:40.133Z,77.28
2022-10-19T22:16:27.232Z,77.31
2022-10-19T22:18:54.906Z,78.12
2022-10-19T22:21:28.551Z,77.36
2022-10-19T22:23:58.053Z,77.47
2022-10-19T22:26:36.504Z,76.81
2022-10-19T22:29:04.876Z,77.66
2022-10-19T22:31:32.864Z,78.65
2022-10-19T22:34:04.228Z,78.36
2022-10-19T22:36:33.233Z,77.36
2022-10-19T22:38:59.830Z,76.96
2022-10-19T22:41:26.305Z,76.19
2022-10-19T22:44:30.615Z,75.32
2022-10-19T22:47:34.612Z,75.10
2022-10-19T22:50:38.327Z,74.97
2022-10-19T22:53:04.805Z,75.02
2022-10-19T22:55:31.438Z,74.49
2022-10-19T22:57:58.009Z,74.00
2022-10-19T23:00:24.755Z,74.26
2022-10-19T23:02:51.208Z,74.08
2022-10-19T23:05:17.925Z,74.85
2022-10-19T23:07:44.468Z,75.47
2022-10-19T23:10:10.969Z,74.93
2022-10-19T23:12:37.419Z,75.13
2022-10-19T23:15:04.214Z,75.06
2022-10-19T23:17:30.685Z,75.61
2022-10-19T23:19:57.186Z,75.49
2022-10-19T23:22:23.911Z,75.65
2022-10-19T23:24:50.404Z,76.32
2022-10-19T23:27:16.882Z,75.19
2022-10-19T23:29:43.383Z,75.70
2022-10-19T23:32:09.951Z,74.93
2022-10-19T23:34:36.444Z,74.94
2022-10-19T23:37:02.922Z,75.63
2022-10-19T23:39:29.376Z,76.04
2022-10-19T23:41:55.884Z,77.17
2022-10-19T23:44:22.343Z,76.14
2022-10-19T23:46:48.867Z,75.78
2022-10-19T23:49:15.324Z,75.58
2022-10-19T23:51:41.799Z,74.85
2022-10-19T23:54:08.297Z,75.57
2022-10-19T23:56:34.812Z,75.00
2022-10-19T23:59:01.399Z,74.43
